sensor_id;sensor_type;location;lat;lon;timestamp;temperature;humidity
59505;DHT22;45321;53.200;5.814;2022-10-16T00:00:43;13.80;87.10
59505;DHT22;45321;53.200;5.814;2022-10-16T00:03:10;13.80;87.10
59505;DHT22;45321;53.200;5.814;2022-10-16T00:05:43;13.80;87.10
59505;DHT22;45321;53.200;5.814;2022-10-16T00:08:11;13.80;87.00
59505;DHT22;45321;53.200;5.814;2022-10-16T00:10:37;13.80;87.00
59505;DHT22;45321;53.200;5.814;2022-10-16T00:13:04;13.80;87.00
59505;DHT22;45321;53.200;5.814;2022-10-16T00:15:32;13.80;87.10
59505;DHT22;45321;53.200;5.814;2022-10-16T00:17:58;13.80;87.00
59505;DHT22;45321;53.200;5.814;2022-10-16T00:20:24;13.80;87.00
59505;DHT22;45321;53.200;5.814;2022-10-16T00:22:50;13.80;86.90
59505;DHT22;45321;53.200;5.814;2022-10-16T00:25:16;13.80;86.90
59505;DHT22;45321;53.200;5.814;2022-10-16T00:27:41;13.80;86.90
59505;DHT22;45321;53.200;5.814;2022-10-16T00:30:07;13.80;86.80
59505;DHT22;45321;53.200;5.814;2022-10-16T00:32:34;13.80;86.80
59505;DHT22;45321;53.200;5.814;2022-10-16T00:34:59;13.80;86.80
59505;DHT22;45321;53.200;5.814;2022-10-16T00:37:25;13.80;86.70
59505;DHT22;45321;53.200;5.814;2022-10-16T00:39:51;13.80;86.70
59505;DHT22;45321;53.200;5.814;2022-10-16T00:42:18;13.80;86.70
59505;DHT22;45321;53.200;5.814;2022-10-16T00:44:46;13.80;86.60
59505;DHT22;45321;53.200;5.814;2022-10-16T00:47:27;13.80;86.60
59505;DHT22;45321;53.200;5.814;2022-10-16T00:50:30;13.80;86.60
59505;DHT22;45321;53.200;5.814;2022-10-16T00:52:59;13.80;86.50
59505;DHT22;45321;53.200;5.814;2022-10-16T00:55:26;13.80;86.50
59505;DHT22;45321;53.200;5.814;2022-10-16T00:57:54;13.80;86.60
59505;DHT22;45321;53.200;5.814;2022-10-16T01:00:24;13.80;86.50
59505;DHT22;45321;53.200;5.814;2022-10-16T01:03:01;13.80;86.60
59505;DHT22;45321;53.200;5.814;2022-10-16T01:05:33;13.80;86.60
59505;DHT22;45321;53.200;5.814;2022-10-16T01:08:13;13.80;86.60
59505;DHT22;45321;53.200;5.814;2022-10-16T01:10:59;13.90;86.50
59505;DHT22;45321;53.200;5.814;2022-10-16T01:13:33;13.90;86.50
59505;DHT22;45321;53.200;5.814;2022-10-16T01:16:15;13.90;86.50
59505;DHT22;45321;53.200;5.814;2022-10-16T01:18:46;13.90;86.50
59505;DHT22;45321;53.200;5.814;2022-10-16T01:24:01;14.00;86.50
59505;DHT22;45321;53.200;5.814;2022-10-16T01:29:40;14.00;86.20
59505;DHT22;45321;53.200;5.814;2022-10-16T01:32:15;14.00;86.30
59505;DHT22;45321;53.200;5.814;2022-10-16T01:34:48;14.00;86.30
59505;DHT22;45321;53.200;5.814;2022-10-16T01:37:32;14.00;86.10
59505;DHT22;45321;53.200;5.814;2022-10-16T01:40:00;14.00;86.10
59505;DHT22;45321;53.200;5.814;2022-10-16T01:42:35;14.00;86.00
59505;DHT22;45321;53.200;5.814;2022-10-16T01:45:02;14.00;86.00
59505;DHT22;45321;53.200;5.814;2022-10-16T01:47:32;14.00;85.80
59505;DHT22;45321;53.200;5.814;2022-10-16T01:49:59;14.00;85.50
59505;DHT22;45321;53.200;5.814;2022-10-16T01:52:28;14.00;85.90
59505;DHT22;45321;53.200;5.814;2022-10-16T01:54:56;14.00;86.00
59505;DHT22;45321;53.200;5.814;2022-10-16T01:57:24;14.00;86.20
59505;DHT22;45321;53.200;5.814;2022-10-16T01:59:54;14.00;86.40
59505;DHT22;45321;53.200;5.814;2022-10-16T02:02:21;13.90;86.50
59505;DHT22;45321;53.200;5.814;2022-10-16T02:04:53;13.90;86.50
59505;DHT22;45321;53.200;5.814;2022-10-16T02:07:20;13.90;86.50
59505;DHT22;45321;53.200;5.814;2022-10-16T02:09:46;13.90;86.80
59505;DHT22;45321;53.200;5.814;2022-10-16T02:12:32;13.90;86.70
59505;DHT22;45321;53.200;5.814;2022-10-16T02:14:58;13.80;86.70
59505;DHT22;45321;53.200;5.814;2022-10-16T02:17:25;13.80;87.00
59505;DHT22;45321;53.200;5.814;2022-10-16T02:19:52;13.80;87.10
59505;DHT22;45321;53.200;5.814;2022-10-16T02:22:28;13.80;87.20
59505;DHT22;45321;53.200;5.814;2022-10-16T02:24:59;13.80;87.30
59505;DHT22;45321;53.200;5.814;2022-10-16T02:30:36;13.80;87.50
59505;DHT22;45321;53.200;5.814;2022-10-16T02:33:07;13.80;87.50
59505;DHT22;45321;53.200;5.814;2022-10-16T02:35:34;13.80;87.60
59505;DHT22;45321;53.200;5.814;2022-10-16T02:38:01;13.80;87.60
59505;DHT22;45321;53.200;5.814;2022-10-16T02:40:27;13.80;87.50
59505;DHT22;45321;53.200;5.814;2022-10-16T02:42:54;13.80;87.30
59505;DHT22;45321;53.200;5.814;2022-10-16T02:45:23;13.80;87.30
59505;DHT22;45321;53.200;5.814;2022-10-16T02:47:49;13.80;87.10
59505;DHT22;45321;53.200;5.814;2022-10-16T02:50:15;13.80;86.90
59505;DHT22;45321;53.200;5.814;2022-10-16T02:52:41;13.80;86.90
59505;DHT22;45321;53.200;5.814;2022-10-16T02:55:07;13.80;86.80
59505;DHT22;45321;53.200;5.814;2022-10-16T02:57:33;13.80;86.80
59505;DHT22;45321;53.200;5.814;2022-10-16T02:59:59;13.80;86.70
59505;DHT22;45321;53.200;5.814;2022-10-16T03:02:24;13.80;86.60
59505;DHT22;45321;53.200;5.814;2022-10-16T03:04:50;13.70;86.50
59505;DHT22;45321;53.200;5.814;2022-10-16T03:07:16;13.70;86.40
59505;DHT22;45321;53.200;5.814;2022-10-16T03:09:42;13.70;86.20
59505;DHT22;45321;53.200;5.814;2022-10-16T03:12:08;13.60;86.20
59505;DHT22;45321;53.200;5.814;2022-10-16T03:14:34;13.60;86.20
59505;DHT22;45321;53.200;5.814;2022-10-16T03:16:59;13.50;86.30
59505;DHT22;45321;53.200;5.814;2022-10-16T03:19:25;13.60;86.10
59505;DHT22;45321;53.200;5.814;2022-10-16T03:21:51;13.50;85.90
59505;DHT22;45321;53.200;5.814;2022-10-16T03:24:16;13.50;85.90
59505;DHT22;45321;53.200;5.814;2022-10-16T03:26:42;13.50;85.90
59505;DHT22;45321;53.200;5.814;2022-10-16T03:29:08;13.50;85.70
59505;DHT22;45321;53.200;5.814;2022-10-16T03:31:33;13.50;85.80
59505;DHT22;45321;53.200;5.814;2022-10-16T03:33:59;13.50;85.80
59505;DHT22;45321;53.200;5.814;2022-10-16T03:36:25;13.50;85.60
59505;DHT22;45321;53.200;5.814;2022-10-16T03:38:51;13.50;85.80
59505;DHT22;45321;53.200;5.814;2022-10-16T03:41:16;13.50;85.90
59505;DHT22;45321;53.200;5.814;2022-10-16T03:43:42;13.50;85.80
59505;DHT22;45321;53.200;5.814;2022-10-16T03:46:08;13.60;85.90
59505;DHT22;45321;53.200;5.814;2022-10-16T03:48:34;13.60;85.90
59505;DHT22;45321;53.200;5.814;2022-10-16T03:50:59;13.60;85.90
59505;DHT22;45321;53.200;5.814;2022-10-16T03:53:25;13.70;85.80
59505;DHT22;45321;53.200;5.814;2022-10-16T03:55:51;13.70;85.90
59505;DHT22;45321;53.200;5.814;2022-10-16T03:58:17;13.70;85.80
59505;DHT22;45321;53.200;5.814;2022-10-16T04:00:43;13.80;86.00
59505;DHT22;45321;53.200;5.814;2022-10-16T04:03:10;13.80;86.30
59505;DHT22;45321;53.200;5.814;2022-10-16T04:05:36;13.80;86.60
59505;DHT22;45321;53.200;5.814;2022-10-16T04:08:02;13.80;86.80
59505;DHT22;45321;53.200;5.814;2022-10-16T04:10:27;13.70;87.00
59505;DHT22;45321;53.200;5.814;2022-10-16T04:12:53;13.70;87.00
59505;DHT22;45321;53.200;5.814;2022-10-16T04:15:22;13.70;87.20
59505;DHT22;45321;53.200;5.814;2022-10-16T04:17:47;13.70;87.60
59505;DHT22;45321;53.200;5.814;2022-10-16T04:20:13;13.70;87.80
59505;DHT22;45321;53.200;5.814;2022-10-16T04:22:39;13.70;87.90
59505;DHT22;45321;53.200;5.814;2022-10-16T04:25:05;13.70;88.00
59505;DHT22;45321;53.200;5.814;2022-10-16T04:27:31;13.70;88.00
59505;DHT22;45321;53.200;5.814;2022-10-16T04:29:58;13.60;88.20
59505;DHT22;45321;53.200;5.814;2022-10-16T04:32:23;13.60;88.20
59505;DHT22;45321;53.200;5.814;2022-10-16T04:34:49;13.60;88.20
59505;DHT22;45321;53.200;5.814;2022-10-16T04:37:15;13.60;88.10
59505;DHT22;45321;53.200;5.814;2022-10-16T04:39:40;13.60;88.30
59505;DHT22;45321;53.200;5.814;2022-10-16T04:42:06;13.50;88.20
59505;DHT22;45321;53.200;5.814;2022-10-16T04:44:32;13.50;88.40
59505;DHT22;45321;53.200;5.814;2022-10-16T04:46:57;13.50;88.30
59505;DHT22;45321;53.200;5.814;2022-10-16T04:49:23;13.50;88.30
59505;DHT22;45321;53.200;5.814;2022-10-16T04:51:49;13.40;88.40
59505;DHT22;45321;53.200;5.814;2022-10-16T04:54:15;13.40;88.50
59505;DHT22;45321;53.200;5.814;2022-10-16T04:56:40;13.40;88.60
59505;DHT22;45321;53.200;5.814;2022-10-16T04:59:13;13.40;88.30
59505;DHT22;45321;53.200;5.814;2022-10-16T05:01:39;13.40;88.30
59505;DHT22;45321;53.200;5.814;2022-10-16T05:04:04;13.40;88.30
59505;DHT22;45321;53.200;5.814;2022-10-16T05:06:30;13.40;88.10
59505;DHT22;45321;53.200;5.814;2022-10-16T05:08:56;13.40;88.20
59505;DHT22;45321;53.200;5.814;2022-10-16T05:11:21;13.40;88.20
59505;DHT22;45321;53.200;5.814;2022-10-16T05:13:47;13.40;88.10
59505;DHT22;45321;53.200;5.814;2022-10-16T05:16:13;13.40;88.30
59505;DHT22;45321;53.200;5.814;2022-10-16T05:18:38;13.40;88.10
59505;DHT22;45321;53.200;5.814;2022-10-16T05:21:04;13.40;88.20
59505;DHT22;45321;53.200;5.814;2022-10-16T05:23:31;13.40;88.10
59505;DHT22;45321;53.200;5.814;2022-10-16T05:25:58;13.40;88.20
59505;DHT22;45321;53.200;5.814;2022-10-16T05:28:28;13.40;88.20
59505;DHT22;45321;53.200;5.814;2022-10-16T05:30:56;13.40;88.20
59505;DHT22;45321;53.200;5.814;2022-10-16T05:33:23;13.30;88.20
59505;DHT22;45321;53.200;5.814;2022-10-16T05:35:49;13.40;88.20
59505;DHT22;45321;53.200;5.814;2022-10-16T05:38:18;13.40;88.30
59505;DHT22;45321;53.200;5.814;2022-10-16T05:40:51;13.30;88.40
59505;DHT22;45321;53.200;5.814;2022-10-16T05:43:18;13.30;88.40
59505;DHT22;45321;53.200;5.814;2022-10-16T05:45:43;13.40;88.50
59505;DHT22;45321;53.200;5.814;2022-10-16T05:48:09;13.30;88.40
59505;DHT22;45321;53.200;5.814;2022-10-16T05:50:35;13.30;88.50
59505;DHT22;45321;53.200;5.814;2022-10-16T05:53:00;13.30;88.50
59505;DHT22;45321;53.200;5.814;2022-10-16T05:55:26;13.30;88.50
59505;DHT22;45321;53.200;5.814;2022-10-16T05:57:54;13.30;88.40
59505;DHT22;45321;53.200;5.814;2022-10-16T06:00:20;13.30;88.40
59505;DHT22;45321;53.200;5.814;2022-10-16T06:02:45;13.30;88.40
59505;DHT22;45321;53.200;5.814;2022-10-16T06:05:11;13.30;88.40
59505;DHT22;45321;53.200;5.814;2022-10-16T06:07:37;13.30;88.30
59505;DHT22;45321;53.200;5.814;2022-10-16T06:10:04;13.40;88.30
59505;DHT22;45321;53.200;5.814;2022-10-16T06:12:29;13.40;88.20
59505;DHT22;45321;53.200;5.814;2022-10-16T06:14:55;13.40;88.20
59505;DHT22;45321;53.200;5.814;2022-10-16T06:17:21;13.30;88.20
59505;DHT22;45321;53.200;5.814;2022-10-16T06:19:47;13.30;88.20
59505;DHT22;45321;53.200;5.814;2022-10-16T06:22:12;13.30;88.30
59505;DHT22;45321;53.200;5.814;2022-10-16T06:24:38;13.30;88.40
59505;DHT22;45321;53.200;5.814;2022-10-16T06:27:04;13.30;88.50
59505;DHT22;45321;53.200;5.814;2022-10-16T06:29:30;13.30;88.40
59505;DHT22;45321;53.200;5.814;2022-10-16T06:31:56;13.30;88.50
59505;DHT22;45321;53.200;5.814;2022-10-16T06:34:21;13.30;88.60
59505;DHT22;45321;53.200;5.814;2022-10-16T06:36:47;13.30;88.60
59505;DHT22;45321;53.200;5.814;2022-10-16T06:39:13;13.40;88.70
59505;DHT22;45321;53.200;5.814;2022-10-16T06:41:39;13.40;88.60
59505;DHT22;45321;53.200;5.814;2022-10-16T06:44:05;13.40;88.50
59505;DHT22;45321;53.200;5.814;2022-10-16T06:46:32;13.40;88.40
59505;DHT22;45321;53.200;5.814;2022-10-16T06:48:57;13.40;88.40
59505;DHT22;45321;53.200;5.814;2022-10-16T06:51:26;13.40;88.50
59505;DHT22;45321;53.200;5.814;2022-10-16T06:53:53;13.50;88.20
59505;DHT22;45321;53.200;5.814;2022-10-16T06:56:21;13.50;88.10
59505;DHT22;45321;53.200;5.814;2022-10-16T06:58:48;13.50;88.00
59505;DHT22;45321;53.200;5.814;2022-10-16T07:01:16;13.50;88.00
59505;DHT22;45321;53.200;5.814;2022-10-16T07:03:43;13.50;88.10
59505;DHT22;45321;53.200;5.814;2022-10-16T07:06:12;13.50;88.00
59505;DHT22;45321;53.200;5.814;2022-10-16T07:08:40;13.50;87.90
59505;DHT22;45321;53.200;5.814;2022-10-16T07:11:09;13.50;87.80
59505;DHT22;45321;53.200;5.814;2022-10-16T07:13:36;13.50;88.00
59505;DHT22;45321;53.200;5.814;2022-10-16T07:18:35;13.50;88.00
59505;DHT22;45321;53.200;5.814;2022-10-16T07:21:06;13.50;88.00
59505;DHT22;45321;53.200;5.814;2022-10-16T07:23:32;13.40;88.20
59505;DHT22;45321;53.200;5.814;2022-10-16T07:25:58;13.50;88.30
59505;DHT22;45321;53.200;5.814;2022-10-16T07:28:24;13.50;88.40
59505;DHT22;45321;53.200;5.814;2022-10-16T07:30:50;13.50;88.50
59505;DHT22;45321;53.200;5.814;2022-10-16T07:33:15;13.50;88.60
59505;DHT22;45321;53.200;5.814;2022-10-16T07:35:54;13.60;88.60
59505;DHT22;45321;53.200;5.814;2022-10-16T07:38:21;13.60;88.70
59505;DHT22;45321;53.200;5.814;2022-10-16T07:40:47;13.60;88.70
59505;DHT22;45321;53.200;5.814;2022-10-16T07:43:16;13.70;88.70
59505;DHT22;45321;53.200;5.814;2022-10-16T07:45:48;13.70;88.70
59505;DHT22;45321;53.200;5.814;2022-10-16T07:48:15;13.70;88.80
59505;DHT22;45321;53.200;5.814;2022-10-16T07:50:41;13.80;88.80
59505;DHT22;45321;53.200;5.814;2022-10-16T07:53:07;13.80;88.90
59505;DHT22;45321;53.200;5.814;2022-10-16T07:55:33;13.80;88.80
59505;DHT22;45321;53.200;5.814;2022-10-16T07:57:59;13.80;89.10
59505;DHT22;45321;53.200;5.814;2022-10-16T08:00:24;13.90;89.00
59505;DHT22;45321;53.200;5.814;2022-10-16T08:02:50;13.80;88.80
59505;DHT22;45321;53.200;5.814;2022-10-16T08:05:16;13.90;88.80
59505;DHT22;45321;53.200;5.814;2022-10-16T08:07:42;13.90;88.90
59505;DHT22;45321;53.200;5.814;2022-10-16T08:10:16;13.90;88.80
59505;DHT22;45321;53.200;5.814;2022-10-16T08:12:42;13.80;88.90
59505;DHT22;45321;53.200;5.814;2022-10-16T08:15:08;13.90;88.90
59505;DHT22;45321;53.200;5.814;2022-10-16T08:17:34;13.90;88.90
59505;DHT22;45321;53.200;5.814;2022-10-16T08:20:00;13.90;88.90
59505;DHT22;45321;53.200;5.814;2022-10-16T08:22:26;13.90;88.90
59505;DHT22;45321;53.200;5.814;2022-10-16T08:24:51;13.80;88.80
59505;DHT22;45321;53.200;5.814;2022-10-16T08:27:17;13.80;88.80
59505;DHT22;45321;53.200;5.814;2022-10-16T08:29:45;13.90;88.90
59505;DHT22;45321;53.200;5.814;2022-10-16T08:32:11;14.00;89.00
59505;DHT22;45321;53.200;5.814;2022-10-16T08:34:37;14.10;89.00
59505;DHT22;45321;53.200;5.814;2022-10-16T08:37:02;14.20;88.90
59505;DHT22;45321;53.200;5.814;2022-10-16T08:39:28;14.30;88.70
59505;DHT22;45321;53.200;5.814;2022-10-16T08:48:00;14.60;88.00
59505;DHT22;45321;53.200;5.814;2022-10-16T08:50:32;14.60;87.80
59505;DHT22;45321;53.200;5.814;2022-10-16T08:53:01;14.70;88.00
59505;DHT22;45321;53.200;5.814;2022-10-16T08:57:55;14.90;87.70
59505;DHT22;45321;53.200;5.814;2022-10-16T09:00:21;15.00;87.60
59505;DHT22;45321;53.200;5.814;2022-10-16T09:03:10;15.00;87.60
59505;DHT22;45321;53.200;5.814;2022-10-16T09:17:53;15.30;86.90
59505;DHT22;45321;53.200;5.814;2022-10-16T09:20:25;15.30;86.70
59505;DHT22;45321;53.200;5.814;2022-10-16T09:23:10;15.30;86.70
59505;DHT22;45321;53.200;5.814;2022-10-16T09:25:39;15.30;86.90
59505;DHT22;45321;53.200;5.814;2022-10-16T09:28:08;15.30;86.70
59505;DHT22;45321;53.200;5.814;2022-10-16T09:30:35;15.20;86.90
59505;DHT22;45321;53.200;5.814;2022-10-16T09:33:01;15.30;86.90
59505;DHT22;45321;53.200;5.814;2022-10-16T09:35:45;15.30;86.90
59505;DHT22;45321;53.200;5.814;2022-10-16T09:38:32;15.30;86.90
59505;DHT22;45321;53.200;5.814;2022-10-16T09:41:21;15.40;86.90
59505;DHT22;45321;53.200;5.814;2022-10-16T09:43:53;15.50;87.00
59505;DHT22;45321;53.200;5.814;2022-10-16T09:46:32;15.60;86.50
59505;DHT22;45321;53.200;5.814;2022-10-16T09:49:25;15.70;86.00
59505;DHT22;45321;53.200;5.814;2022-10-16T09:52:02;15.80;85.20
59505;DHT22;45321;53.200;5.814;2022-10-16T09:54:29;16.00;85.00
59505;DHT22;45321;53.200;5.814;2022-10-16T09:57:04;16.00;83.90
59505;DHT22;45321;53.200;5.814;2022-10-16T09:59:31;16.10;83.80
59505;DHT22;45321;53.200;5.814;2022-10-16T10:02:02;16.10;82.20
59505;DHT22;45321;53.200;5.814;2022-10-16T10:04:41;16.10;81.80
59505;DHT22;45321;53.200;5.814;2022-10-16T10:07:25;16.00;80.50
59505;DHT22;45321;53.200;5.814;2022-10-16T10:09:52;15.90;80.90
59505;DHT22;45321;53.200;5.814;2022-10-16T10:12:19;15.90;80.60
59505;DHT22;45321;53.200;5.814;2022-10-16T10:14:50;15.80;79.20
59505;DHT22;45321;53.200;5.814;2022-10-16T10:17:22;15.70;78.50
59505;DHT22;45321;53.200;5.814;2022-10-16T10:22:46;15.70;78.80
59505;DHT22;45321;53.200;5.814;2022-10-16T10:25:26;15.60;78.90
59505;DHT22;45321;53.200;5.814;2022-10-16T10:28:17;15.60;78.50
59505;DHT22;45321;53.200;5.814;2022-10-16T10:33:54;15.60;78.90
59505;DHT22;45321;53.200;5.814;2022-10-16T10:36:41;15.70;78.90
59505;DHT22;45321;53.200;5.814;2022-10-16T10:39:25;15.80;79.60
59505;DHT22;45321;53.200;5.814;2022-10-16T10:44:39;16.10;77.30
59505;DHT22;45321;53.200;5.814;2022-10-16T10:55:56;17.00;75.70
59505;DHT22;45321;53.200;5.814;2022-10-16T10:58:47;17.10;74.50
59505;DHT22;45321;53.200;5.814;2022-10-16T11:01:17;17.20;72.50
59505;DHT22;45321;53.200;5.814;2022-10-16T11:06:32;17.60;70.70
59505;DHT22;45321;53.200;5.814;2022-10-16T11:09:38;17.90;70.30
59505;DHT22;45321;53.200;5.814;2022-10-16T11:12:21;18.20;68.80
59505;DHT22;45321;53.200;5.814;2022-10-16T11:15:11;18.50;69.40
59505;DHT22;45321;53.200;5.814;2022-10-16T11:18:05;18.70;67.80
59505;DHT22;45321;53.200;5.814;2022-10-16T11:20:35;18.80;65.30
59505;DHT22;45321;53.200;5.814;2022-10-16T11:23:11;18.90;66.00
59505;DHT22;45321;53.200;5.814;2022-10-16T11:25:39;19.10;64.60
59505;DHT22;45321;53.200;5.814;2022-10-16T11:42:13;19.40;62.90
59505;DHT22;45321;53.200;5.814;2022-10-16T11:45:03;19.50;62.90
59505;DHT22;45321;53.200;5.814;2022-10-16T11:47:48;19.60;64.00
59505;DHT22;45321;53.200;5.814;2022-10-16T11:55:46;20.00;62.20
59505;DHT22;45321;53.200;5.814;2022-10-16T12:03:45;19.90;61.10
59505;DHT22;45321;53.200;5.814;2022-10-16T12:08:43;19.90;61.90
59505;DHT22;45321;53.200;5.814;2022-10-16T12:16:56;20.50;61.50
59505;DHT22;45321;53.200;5.814;2022-10-16T12:19:23;20.60;60.70
59505;DHT22;45321;53.200;5.814;2022-10-16T12:21:51;20.70;60.00
59505;DHT22;45321;53.200;5.814;2022-10-16T12:24:29;20.90;59.70
59505;DHT22;45321;53.200;5.814;2022-10-16T12:26:57;21.00;58.00
59505;DHT22;45321;53.200;5.814;2022-10-16T12:29:36;21.00;56.90
59505;DHT22;45321;53.200;5.814;2022-10-16T12:32:05;20.90;58.00
59505;DHT22;45321;53.200;5.814;2022-10-16T12:34:38;20.80;59.00
59505;DHT22;45321;53.200;5.814;2022-10-16T12:37:11;20.90;60.40
59505;DHT22;45321;53.200;5.814;2022-10-16T12:39:38;21.00;59.50
59505;DHT22;45321;53.200;5.814;2022-10-16T12:42:18;20.90;59.80
59505;DHT22;45321;53.200;5.814;2022-10-16T12:44:44;20.90;59.70
59505;DHT22;45321;53.200;5.814;2022-10-16T12:47:21;20.90;60.00
59505;DHT22;45321;53.200;5.814;2022-10-16T12:49:54;20.90;58.90
59505;DHT22;45321;53.200;5.814;2022-10-16T12:52:39;20.70;59.30
59505;DHT22;45321;53.200;5.814;2022-10-16T12:55:09;20.40;59.10
59505;DHT22;45321;53.200;5.814;2022-10-16T13:00:35;20.10;60.70
59505;DHT22;45321;53.200;5.814;2022-10-16T13:06:20;20.00;62.20
59505;DHT22;45321;53.200;5.814;2022-10-16T13:12:01;19.80;59.70
59505;DHT22;45321;53.200;5.814;2022-10-16T13:15:04;19.50;60.70
59505;DHT22;45321;53.200;5.814;2022-10-16T13:17:50;19.30;61.70
59505;DHT22;45321;53.200;5.814;2022-10-16T13:23:33;19.40;62.40
59505;DHT22;45321;53.200;5.814;2022-10-16T13:28:53;19.30;61.30
59505;DHT22;45321;53.200;5.814;2022-10-16T13:31:21;19.00;61.60
59505;DHT22;45321;53.200;5.814;2022-10-16T13:33:50;18.80;62.20
59505;DHT22;45321;53.200;5.814;2022-10-16T13:36:33;18.60;62.80
59505;DHT22;45321;53.200;5.814;2022-10-16T13:39:14;18.40;62.70
59505;DHT22;45321;53.200;5.814;2022-10-16T13:41:40;18.30;63.30
59505;DHT22;45321;53.200;5.814;2022-10-16T13:44:18;18.20;64.20
59505;DHT22;45321;53.200;5.814;2022-10-16T13:46:45;18.20;64.20
59505;DHT22;45321;53.200;5.814;2022-10-16T13:49:16;18.20;64.10
59505;DHT22;45321;53.200;5.814;2022-10-16T13:51:57;18.10;63.20
59505;DHT22;45321;53.200;5.814;2022-10-16T13:54:24;18.10;64.00
59505;DHT22;45321;53.200;5.814;2022-10-16T13:56:51;18.00;64.20
59505;DHT22;45321;53.200;5.814;2022-10-16T13:59:25;18.00;64.90
59505;DHT22;45321;53.200;5.814;2022-10-16T14:01:56;18.00;64.30
59505;DHT22;45321;53.200;5.814;2022-10-16T14:04:23;18.00;64.80
59505;DHT22;45321;53.200;5.814;2022-10-16T14:06:50;17.90;64.40
59505;DHT22;45321;53.200;5.814;2022-10-16T14:09:28;17.90;63.80
59505;DHT22;45321;53.200;5.814;2022-10-16T14:12:01;17.90;64.60
59505;DHT22;45321;53.200;5.814;2022-10-16T14:15:03;18.00;65.60
59505;DHT22;45321;53.200;5.814;2022-10-16T14:17:25;18.20;65.20
59505;DHT22;45321;53.200;5.814;2022-10-16T14:19:54;18.30;64.70
59505;DHT22;45321;53.200;5.814;2022-10-16T14:22:36;18.30;65.10
59505;DHT22;45321;53.200;5.814;2022-10-16T14:30:32;18.20;65.10
59505;DHT22;45321;53.200;5.814;2022-10-16T14:33:03;18.20;65.20
59505;DHT22;45321;53.200;5.814;2022-10-16T14:35:34;18.10;64.80
59505;DHT22;45321;53.200;5.814;2022-10-16T14:38:03;18.00;63.70
59505;DHT22;45321;53.200;5.814;2022-10-16T14:40:36;17.90;65.00
59505;DHT22;45321;53.200;5.814;2022-10-16T14:43:04;17.80;65.00
59505;DHT22;45321;53.200;5.814;2022-10-16T14:45:32;17.80;64.70
59505;DHT22;45321;53.200;5.814;2022-10-16T14:48:03;17.70;66.10
59505;DHT22;45321;53.200;5.814;2022-10-16T14:50:29;17.60;66.40
59505;DHT22;45321;53.200;5.814;2022-10-16T14:52:55;17.60;67.00
59505;DHT22;45321;53.200;5.814;2022-10-16T14:55:21;17.60;66.80
59505;DHT22;45321;53.200;5.814;2022-10-16T14:57:47;17.50;67.40
59505;DHT22;45321;53.200;5.814;2022-10-16T15:00:22;17.50;67.50
59505;DHT22;45321;53.200;5.814;2022-10-16T15:02:49;17.40;67.20
59505;DHT22;45321;53.200;5.814;2022-10-16T15:05:23;17.40;67.70
59505;DHT22;45321;53.200;5.814;2022-10-16T15:07:50;17.40;67.90
59505;DHT22;45321;53.200;5.814;2022-10-16T15:10:17;17.40;68.60
59505;DHT22;45321;53.200;5.814;2022-10-16T15:12:44;17.30;68.30
59505;DHT22;45321;53.200;5.814;2022-10-16T15:17:50;17.30;68.30
59505;DHT22;45321;53.200;5.814;2022-10-16T15:20:19;17.30;68.80
59505;DHT22;45321;53.200;5.814;2022-10-16T15:22:45;17.20;69.10
59505;DHT22;45321;53.200;5.814;2022-10-16T15:27:54;17.20;69.80
59505;DHT22;45321;53.200;5.814;2022-10-16T15:30:20;17.20;69.50
59505;DHT22;45321;53.200;5.814;2022-10-16T15:32:46;17.20;70.00
59505;DHT22;45321;53.200;5.814;2022-10-16T15:35:12;17.20;69.70
59505;DHT22;45321;53.200;5.814;2022-10-16T15:37:37;17.20;70.30
59505;DHT22;45321;53.200;5.814;2022-10-16T15:40:03;17.10;70.30
59505;DHT22;45321;53.200;5.814;2022-10-16T15:42:29;17.10;71.00
59505;DHT22;45321;53.200;5.814;2022-10-16T15:44:55;17.10;70.40
59505;DHT22;45321;53.200;5.814;2022-10-16T15:47:20;17.00;71.00
59505;DHT22;45321;53.200;5.814;2022-10-16T15:49:47;17.00;71.40
59505;DHT22;45321;53.200;5.814;2022-10-16T15:52:12;17.00;71.20
59505;DHT22;45321;53.200;5.814;2022-10-16T15:54:38;17.00;71.40
59505;DHT22;45321;53.200;5.814;2022-10-16T15:57:04;16.90;71.50
59505;DHT22;45321;53.200;5.814;2022-10-16T15:59:29;16.80;72.20
59505;DHT22;45321;53.200;5.814;2022-10-16T16:01:55;16.80;72.70
59505;DHT22;45321;53.200;5.814;2022-10-16T16:04:21;16.70;72.90
59505;DHT22;45321;53.200;5.814;2022-10-16T16:06:47;16.70;73.20
59505;DHT22;45321;53.200;5.814;2022-10-16T16:09:13;16.70;73.40
59505;DHT22;45321;53.200;5.814;2022-10-16T16:11:39;16.60;73.70
59505;DHT22;45321;53.200;5.814;2022-10-16T16:14:06;16.50;74.00
59505;DHT22;45321;53.200;5.814;2022-10-16T16:16:32;16.50;74.30
59505;DHT22;45321;53.200;5.814;2022-10-16T16:19:04;16.50;73.90
59505;DHT22;45321;53.200;5.814;2022-10-16T16:21:31;16.50;74.30
59505;DHT22;45321;53.200;5.814;2022-10-16T16:23:57;16.40;73.80
59505;DHT22;45321;53.200;5.814;2022-10-16T16:26:28;16.40;74.20
59505;DHT22;45321;53.200;5.814;2022-10-16T16:28:58;16.30;74.10
59505;DHT22;45321;53.200;5.814;2022-10-16T16:31:26;16.30;74.50
59505;DHT22;45321;53.200;5.814;2022-10-16T16:33:52;16.30;74.90
59505;DHT22;45321;53.200;5.814;2022-10-16T16:36:18;16.20;75.00
59505;DHT22;45321;53.200;5.814;2022-10-16T16:38:45;16.20;75.20
59505;DHT22;45321;53.200;5.814;2022-10-16T16:41:22;16.20;75.30
59505;DHT22;45321;53.200;5.814;2022-10-16T16:43:48;16.10;75.30
59505;DHT22;45321;53.200;5.814;2022-10-16T16:46:15;16.10;75.50
59505;DHT22;45321;53.200;5.814;2022-10-16T16:48:41;16.00;75.60
59505;DHT22;45321;53.200;5.814;2022-10-16T16:51:09;15.90;75.90
59505;DHT22;45321;53.200;5.814;2022-10-16T16:53:35;15.90;76.00
59505;DHT22;45321;53.200;5.814;2022-10-16T16:56:02;15.90;76.10
59505;DHT22;45321;53.200;5.814;2022-10-16T16:58:28;15.90;76.30
59505;DHT22;45321;53.200;5.814;2022-10-16T17:00:54;15.80;76.40
59505;DHT22;45321;53.200;5.814;2022-10-16T17:03:20;15.80;76.50
59505;DHT22;45321;53.200;5.814;2022-10-16T17:05:58;15.70;76.50
59505;DHT22;45321;53.200;5.814;2022-10-16T17:08:25;15.70;76.80
59505;DHT22;45321;53.200;5.814;2022-10-16T17:10:50;15.70;76.60
59505;DHT22;45321;53.200;5.814;2022-10-16T17:13:21;15.70;76.80
59505;DHT22;45321;53.200;5.814;2022-10-16T17:15:49;15.60;76.90
59505;DHT22;45321;53.200;5.814;2022-10-16T17:18:15;15.50;76.90
59505;DHT22;45321;53.200;5.814;2022-10-16T17:20:41;15.50;77.20
59505;DHT22;45321;53.200;5.814;2022-10-16T17:23:08;15.50;77.30
59505;DHT22;45321;53.200;5.814;2022-10-16T17:25:40;15.50;77.30
59505;DHT22;45321;53.200;5.814;2022-10-16T17:28:08;15.50;77.40
59505;DHT22;45321;53.200;5.814;2022-10-16T17:30:34;15.40;77.50
59505;DHT22;45321;53.200;5.814;2022-10-16T17:33:04;15.40;77.70
59505;DHT22;45321;53.200;5.814;2022-10-16T17:35:29;15.40;77.70